Time;durP1;ratioP1;P1;durP2;ratioP2;P2;SDS_P1;SDS_P2;PMS_P1;PMS_P2;Temp;Humidity;BMP_temperature;BMP_pressure;BME280_temperature;BME280_humidity;BME280_pressure;Samples;Min_cycle;Max_cycle;Signal;HPM_P1;HPM_P2
2023/08/18 00:01:19;;;;;;;4.47;4.07;;;22.70;99.90;;;;;;5017566;28;20449;-65
2023/08/18 00:03:47;;;;;;;3.93;3.60;;;22.70;99.90;;;;;;5016771;28;20488;-63
2023/08/18 00:06:14;;;;;;;10.60;6.00;;;22.70;99.90;;;;;;5017735;28;20472;-62
2023/08/18 00:08:42;;;;;;;6.97;4.83;;;22.70;99.90;;;;;;5021177;28;20496;-60
2023/08/18 00:11:10;;;;;;;4.50;4.10;;;22.70;99.90;;;;;;5020833;28;20480;-63
2023/08/18 00:13:37;;;;;;;16.47;10.07;;;22.70;99.90;;;;;;5025693;28;20797;-60
2023/08/18 00:16:04;;;;;;;10.07;6.43;;;22.70;99.90;;;;;;5020850;28;20445;-63
2023/08/18 00:18:30;;;;;;;6.60;4.97;;;22.70;99.90;;;;;;5016155;28;20560;-63
2023/08/18 00:20:59;;;;;;;5.50;4.97;;;22.70;99.90;;;;;;5016113;28;20550;-63
2023/08/18 00:23:26;;;;;;;5.33;4.23;;;22.70;99.90;;;;;;5016261;28;20524;-63
2023/08/18 00:25:52;;;;;;;4.80;4.40;;;22.60;99.90;;;;;;5016458;28;20503;-61
2023/08/18 00:28:19;;;;;;;7.80;4.70;;;22.60;99.90;;;;;;5016403;28;20461;-61
2023/08/18 00:30:46;;;;;;;14.30;5.83;;;22.60;99.90;;;;;;5018200;28;20462;-62
2023/08/18 00:33:13;;;;;;;7.33;5.10;;;22.60;99.90;;;;;;5035850;28;20442;-61
2023/08/18 00:35:40;;;;;;;17.27;12.10;;;22.60;99.90;;;;;;5027627;28;20476;-64
2023/08/18 00:38:08;;;;;;;9.00;5.40;;;22.60;99.90;;;;;;5016040;28;21005;-62
2023/08/18 00:40:35;;;;;;;21.10;6.90;;;22.50;99.90;;;;;;5021408;28;20484;-61
2023/08/18 00:43:02;;;;;;;10.13;6.40;;;22.60;99.90;;;;;;5015900;28;20480;-61
2023/08/18 00:45:29;;;;;;;5.17;4.70;;;22.50;99.90;;;;;;5016608;28;20540;-63
2023/08/18 00:47:56;;;;;;;11.03;6.10;;;22.50;99.90;;;;;;5016616;28;20437;-62
2023/08/18 00:50:23;;;;;;;8.00;6.07;;;22.50;99.90;;;;;;5016818;28;20476;-61
2023/08/18 00:52:57;;;;;;;9.23;7.17;;;22.50;99.90;;;;;;5016574;28;20451;-63
2023/08/18 00:55:26;;;;;;;7.63;5.20;;;22.50;99.90;;;;;;5017276;28;20433;-62
2023/08/18 00:57:55;;;;;;;5.47;4.93;;;22.50;99.90;;;;;;5017318;28;20456;-61
2023/08/18 01:00:23;;;;;;;6.00;5.40;;;22.40;99.90;;;;;;5015763;28;20499;-61
2023/08/18 01:02:50;;;;;;;5.93;5.07;;;22.50;99.90;;;;;;5015441;28;20511;-62
2023/08/18 01:05:20;;;;;;;6.00;4.80;;;22.40;99.90;;;;;;5037981;28;20429;-53
2023/08/18 01:07:47;;;;;;;5.40;4.90;;;22.40;99.90;;;;;;5039572;28;20402;-51
2023/08/18 01:10:15;;;;;;;5.83;5.27;;;22.30;99.90;;;;;;5039441;28;20453;-51
2023/08/18 01:12:56;;;;;;;12.90;4.73;;;22.30;99.90;;;;;;5017212;28;20532;-62
2023/08/18 01:15:29;;;;;;;7.60;5.43;;;22.30;99.90;;;;;;5015558;28;20859;-61
2023/08/18 01:17:56;;;;;;;7.00;5.37;;;22.30;99.90;;;;;;5015539;28;20517;-62
2023/08/18 01:20:24;;;;;;;5.80;5.27;;;22.30;99.90;;;;;;5018095;28;21042;-61
2023/08/18 01:22:56;;;;;;;10.77;7.70;;;22.30;99.90;;;;;;5017948;28;20485;-61
2023/08/18 01:25:23;;;;;;;7.93;6.03;;;22.30;99.90;;;;;;5015866;28;20876;-60
2023/08/18 01:27:51;;;;;;;6.13;5.13;;;22.30;99.90;;;;;;5015346;28;20481;-62
2023/08/18 01:30:18;;;;;;;7.67;6.27;;;22.30;99.90;;;;;;5015179;28;20568;-61
2023/08/18 01:32:51;;;;;;;8.33;6.57;;;22.30;99.90;;;;;;5014955;28;20480;-62
2023/08/18 01:35:19;;;;;;;10.47;6.37;;;22.30;99.90;;;;;;5014819;28;20481;-62
2023/08/18 01:37:48;;;;;;;8.47;6.60;;;22.30;99.90;;;;;;5015225;28;20782;-62
2023/08/18 01:40:18;;;;;;;7.60;6.80;;;22.30;99.90;;;;;;5015119;28;20562;-61
2023/08/18 01:42:46;;;;;;;8.43;5.90;;;22.30;99.90;;;;;;5015883;28;20477;-61
2023/08/18 01:45:14;;;;;;;6.13;5.53;;;22.30;99.90;;;;;;5017175;28;20544;-62
2023/08/18 01:47:41;;;;;;;10.00;6.30;;;22.20;99.90;;;;;;5014987;28;20441;-62
2023/08/18 01:50:09;;;;;;;6.70;6.00;;;22.20;99.90;;;;;;5015341;28;20515;-62
2023/08/18 01:52:36;;;;;;;6.60;5.90;;;22.20;99.90;;;;;;5016371;28;21007;-61
2023/08/18 01:55:03;;;;;;;7.37;6.67;;;22.20;99.90;;;;;;5015096;28;20564;-61
2023/08/18 01:57:31;;;;;;;7.40;6.70;;;22.10;99.90;;;;;;5015037;28;20786;-62
2023/08/18 01:59:58;;;;;;;8.87;6.10;;;22.10;99.90;;;;;;5015042;28;20515;-61
2023/08/18 02:02:25;;;;;;;13.77;6.47;;;22.10;99.90;;;;;;5017952;28;20485;-62
2023/08/18 02:04:52;;;;;;;9.43;7.30;;;22.10;99.90;;;;;;5019767;28;20531;-63
2023/08/18 02:07:19;;;;;;;5.80;5.17;;;22.10;99.90;;;;;;5017991;28;20421;-61
2023/08/18 02:09:45;;;;;;;9.20;6.23;;;22.10;99.90;;;;;;5018545;28;20462;-63
2023/08/18 02:12:13;;;;;;;7.57;6.87;;;22.00;99.90;;;;;;5034676;28;20409;-50
2023/08/18 02:14:41;;;;;;;7.93;6.13;;;22.00;99.90;;;;;;5042651;28;20419;-55
2023/08/18 02:17:08;;;;;;;7.47;6.53;;;21.90;99.90;;;;;;5041071;28;20448;-58
2023/08/18 02:19:34;;;;;;;11.30;6.47;;;21.90;99.90;;;;;;5040347;28;20430;-61
2023/08/18 02:22:01;;;;;;;7.37;6.60;;;21.90;99.90;;;;;;5038982;28;20425;-62
2023/08/18 02:24:28;;;;;;;7.90;7.10;;;21.90;99.90;;;;;;5022903;28;20480;-61
2023/08/18 02:26:55;;;;;;;8.80;6.90;;;21.90;99.90;;;;;;5018827;28;20993;-61
2023/08/18 02:29:22;;;;;;;6.57;5.90;;;21.90;99.90;;;;;;5018575;28;20542;-61
2023/08/18 02:31:52;;;;;;;7.87;6.67;;;21.80;99.90;;;;;;5018617;28;20511;-61
2023/08/18 02:34:19;;;;;;;9.13;5.97;;;21.80;99.90;;;;;;5018069;28;20452;-63
2023/08/18 02:36:46;;;;;;;7.37;6.60;;;21.80;99.90;;;;;;5018074;28;20535;-60
2023/08/18 02:39:13;;;;;;;9.43;7.10;;;21.80;99.90;;;;;;5018420;28;20447;-62
2023/08/18 02:41:39;;;;;;;6.47;5.77;;;21.80;99.90;;;;;;5018558;28;20497;-62
2023/08/18 02:44:06;;;;;;;8.27;6.77;;;21.80;99.90;;;;;;5018274;28;20830;-61
2023/08/18 02:46:33;;;;;;;9.30;8.40;;;21.80;99.90;;;;;;5019753;28;20568;-62
2023/08/18 02:49:01;;;;;;;8.53;7.63;;;21.80;99.90;;;;;;5022732;28;20527;-62
2023/08/18 02:51:28;;;;;;;8.40;6.83;;;21.80;99.90;;;;;;5018753;28;20572;-64
2023/08/18 02:53:55;;;;;;;9.93;6.23;;;21.80;99.90;;;;;;5027046;28;20520;-56
2023/08/18 02:56:22;;;;;;;10.57;6.70;;;21.80;99.90;;;;;;5028514;28;20505;-62
2023/08/18 02:58:49;;;;;;;8.00;7.20;;;21.80;99.90;;;;;;5019136;28;20503;-62
2023/08/18 03:01:16;;;;;;;7.00;6.30;;;21.80;99.90;;;;;;5017897;28;20503;-62
2023/08/18 03:03:46;;;;;;;7.00;6.30;;;21.80;99.90;;;;;;5019009;28;20894;-62
2023/08/18 03:06:15;;;;;;;10.50;7.60;;;21.80;99.90;;;;;;5028938;28;20449;-62
2023/08/18 03:08:42;;;;;;;7.40;6.50;;;21.80;99.90;;;;;;5021788;28;20445;-62
2023/08/18 03:11:09;;;;;;;12.27;6.00;;;21.80;99.90;;;;;;5022473;28;20559;-61
2023/08/18 03:13:36;;;;;;;10.90;8.80;;;21.80;99.90;;;;;;5022382;28;20488;-61
2023/08/18 03:16:04;;;;;;;8.73;7.03;;;21.80;99.90;;;;;;5022388;28;20473;-61
2023/08/18 03:18:31;;;;;;;12.13;7.60;;;21.80;99.90;;;;;;5022926;28;20527;-62
2023/08/18 03:20:59;;;;;;;11.90;7.77;;;21.80;99.90;;;;;;5019784;28;20501;-60
2023/08/18 03:23:28;;;;;;;8.17;7.30;;;21.80;99.90;;;;;;5019430;28;20489;-61
2023/08/18 03:26:01;;;;;;;9.40;7.23;;;21.80;99.90;;;;;;5019744;28;20469;-62
2023/08/18 03:28:28;;;;;;;11.20;7.30;;;21.80;99.90;;;;;;5020361;28;20439;-62
2023/08/18 03:31:00;;;;;;;7.67;6.87;;;21.80;99.90;;;;;;5019977;28;20465;-57
2023/08/18 03:33:31;;;;;;;8.23;7.33;;;21.80;99.90;;;;;;5041195;28;20433;-53
2023/08/18 03:35:59;;;;;;;11.70;7.40;;;21.80;99.90;;;;;;5034964;28;20471;-61
2023/08/18 03:38:27;;;;;;;9.40;7.87;;;21.80;99.90;;;;;;5019054;28;20445;-62
2023/08/18 03:40:59;;;;;;;8.17;7.27;;;21.80;99.90;;;;;;5040963;28;20457;-56
2023/08/18 03:43:26;;;;;;;8.70;7.80;;;21.80;99.90;;;;;;5036460;28;20469;-61
2023/08/18 03:45:53;;;;;;;7.93;7.10;;;21.80;99.90;;;;;;5018249;28;20477;-61
2023/08/18 03:48:21;;;;;;;11.23;8.97;;;21.80;99.90;;;;;;5028405;28;20469;-55
2023/08/18 03:50:48;;;;;;;8.93;7.07;;;21.80;99.90;;;;;;5035826;28;20425;-62
2023/08/18 03:53:21;;;;;;;12.40;7.30;;;21.80;99.90;;;;;;5027328;28;20448;-50
2023/08/18 03:55:52;;;;;;;8.03;6.50;;;21.80;99.90;;;;;;5036332;28;20426;-65
2023/08/18 03:58:19;;;;;;;8.77;6.80;;;21.80;99.90;;;;;;5022223;28;20430;-65
2023/08/18 04:00:46;;;;;;;8.10;7.30;;;21.80;99.90;;;;;;5016627;28;20544;-61
2023/08/18 04:03:13;;;;;;;8.67;7.87;;;21.80;99.90;;;;;;5017318;28;20579;-62
2023/08/18 04:05:45;;;;;;;14.47;9.20;;;21.80;99.90;;;;;;5036178;28;20430;-61
2023/08/18 04:08:15;;;;;;;10.80;7.00;;;21.80;99.90;;;;;;5026336;28;20436;-50
2023/08/18 04:10:42;;;;;;;8.83;6.97;;;21.80;99.90;;;;;;5030401;28;20916;-61
2023/08/18 04:13:10;;;;;;;8.93;8.07;;;21.70;99.90;;;;;;5025227;28;20460;-56
2023/08/18 04:15:37;;;;;;;10.70;8.67;;;21.70;99.90;;;;;;5040502;28;20426;-53
2023/08/18 04:18:05;;;;;;;8.13;6.83;;;21.70;99.90;;;;;;5022596;28;20496;-61
2023/08/18 04:20:32;;;;;;;10.47;7.40;;;21.70;99.90;;;;;;5017007;28;20927;-62
2023/08/18 04:22:58;;;;;;;10.80;8.43;;;21.70;99.90;;;;;;5017801;28;20479;-62
2023/08/18 04:25:25;;;;;;;8.33;7.53;;;21.70;99.90;;;;;;5020351;28;20930;-61
2023/08/18 04:27:54;;;;;;;9.63;7.00;;;21.70;99.90;;;;;;5018815;28;20512;-62
2023/08/18 04:30:23;;;;;;;11.07;8.17;;;21.70;99.90;;;;;;5020392;28;20532;-60
2023/08/18 04:32:51;;;;;;;8.00;7.20;;;21.70;99.90;;;;;;5021277;28;20543;-62
2023/08/18 04:35:18;;;;;;;7.17;6.47;;;21.70;99.90;;;;;;5020994;28;20453;-61
2023/08/18 04:37:45;;;;;;;10.80;8.63;;;21.70;99.90;;;;;;5022123;28;20469;-61
2023/08/18 04:40:12;;;;;;;10.57;8.63;;;21.70;99.90;;;;;;5028425;28;20448;-63
2023/08/18 04:42:39;;;;;;;9.93;7.50;;;21.70;99.90;;;;;;5029191;28;20472;-61
2023/08/18 04:45:07;;;;;;;10.40;8.03;;;21.70;99.90;;;;;;5028604;28;20543;-61
2023/08/18 04:47:35;;;;;;;12.57;8.50;;;21.80;99.90;;;;;;5025974;28;20807;-60
2023/08/18 04:50:02;;;;;;;8.70;7.57;;;21.80;99.90;;;;;;5016282;28;20508;-62
2023/08/18 04:52:30;;;;;;;8.20;7.40;;;21.80;99.90;;;;;;5015510;28;20473;-62
2023/08/18 04:54:57;;;;;;;9.63;7.17;;;21.80;99.90;;;;;;5015825;28;20536;-63
2023/08/18 04:57:24;;;;;;;9.60;8.40;;;21.90;99.90;;;;;;5016033;28;20483;-61
2023/08/18 04:59:51;;;;;;;9.73;8.47;;;21.90;99.90;;;;;;5021011;28;20838;-58
2023/08/18 05:02:18;;;;;;;9.00;8.00;;;21.90;99.90;;;;;;5026235;28;20473;-59
2023/08/18 05:04:46;;;;;;;10.80;8.00;;;22.00;99.90;;;;;;5026660;28;20504;-61
2023/08/18 05:07:13;;;;;;;8.80;7.63;;;22.00;99.90;;;;;;5025778;28;20535;-62
2023/08/18 05:09:40;;;;;;;12.03;8.80;;;22.10;99.90;;;;;;5023020;28;20439;-63
2023/08/18 05:12:08;;;;;;;7.93;7.10;;;22.00;99.90;;;;;;5025999;28;20441;-61
2023/08/18 05:14:35;;;;;;;8.10;7.23;;;22.00;99.90;;;;;;5020604;28;20422;-62
2023/08/18 05:17:02;;;;;;;10.63;8.80;;;22.10;99.90;;;;;;5023940;28;20469;-62
2023/08/18 05:19:31;;;;;;;8.70;7.80;;;22.10;99.90;;;;;;5026288;28;20449;-62
2023/08/18 05:22:00;;;;;;;10.37;8.30;;;22.00;99.90;;;;;;5025770;28;20449;-60
2023/08/18 05:24:29;;;;;;;18.30;8.90;;;22.00;99.90;;;;;;5020770;28;20476;-61
2023/08/18 05:26:56;;;;;;;10.10;9.03;;;22.00;99.90;;;;;;5020046;28;20449;-60
2023/08/18 05:29:23;;;;;;;10.60;9.53;;;22.10;99.90;;;;;;5015745;28;20453;-62
2023/08/18 05:31:50;;;;;;;16.00;9.47;;;22.00;99.90;;;;;;5018578;28;20535;-62
2023/08/18 05:34:17;;;;;;;9.50;8.50;;;22.10;99.90;;;;;;5020096;28;20528;-61
2023/08/18 05:36:44;;;;;;;9.43;8.43;;;22.10;99.90;;;;;;5021783;28;20532;-62
2023/08/18 05:39:12;;;;;;;10.60;8.87;;;22.20;99.90;;;;;;5025689;28;20488;-63
2023/08/18 05:41:39;;;;;;;9.30;8.17;;;22.20;99.90;;;;;;5027270;28;20453;-61
2023/08/18 05:44:06;;;;;;;12.00;9.10;;;22.20;99.90;;;;;;5023144;28;20481;-61
2023/08/18 05:46:34;;;;;;;9.47;8.10;;;22.30;99.90;;;;;;5015845;28;20890;-63
2023/08/18 05:49:02;;;;;;;10.73;8.23;;;22.30;99.90;;;;;;5014825;28;20532;-63
2023/08/18 05:51:29;;;;;;;14.63;10.43;;;22.40;99.90;;;;;;5015060;28;20449;-62
2023/08/18 05:53:56;;;;;;;16.90;8.37;;;22.40;99.90;;;;;;5015058;28;20492;-63
2023/08/18 05:56:24;;;;;;;22.70;12.23;;;22.50;99.90;;;;;;5015474;28;20448;-63
2023/08/18 05:58:51;;;;;;;19.33;9.47;;;22.50;99.90;;;;;;5015797;28;20500;-60
2023/08/18 06:01:18;;;;;;;11.87;9.43;;;22.60;99.90;;;;;;5020210;28;20468;-61
2023/08/18 06:03:45;;;;;;;9.27;7.87;;;22.60;99.90;;;;;;5025157;28;20508;-61
2023/08/18 06:06:12;;;;;;;11.67;7.57;;;22.70;99.90;;;;;;5023251;28;20492;-63
2023/08/18 06:08:39;;;;;;;11.70;8.80;;;22.70;99.90;;;;;;5018438;28;20465;-63
2023/08/18 06:11:06;;;;;;;9.40;8.50;;;22.80;99.90;;;;;;5015034;28;20449;-63
2023/08/18 06:13:34;;;;;;;11.93;8.63;;;22.80;99.90;;;;;;5017693;28;20505;-62
2023/08/18 06:16:04;;;;;;;13.27;8.73;;;22.80;99.90;;;;;;5020342;28;20476;-63
2023/08/18 06:18:32;;;;;;;17.63;9.20;;;22.80;99.90;;;;;;5026006;28;20468;-63
2023/08/18 06:21:01;;;;;;;15.77;8.80;;;22.90;99.90;;;;;;5019885;28;20453;-61
2023/08/18 06:23:28;;;;;;;16.17;9.47;;;22.90;99.90;;;;;;5027164;28;20501;-61
2023/08/18 06:25:57;;;;;;;14.17;8.73;;;23.00;99.90;;;;;;5015005;28;20455;-62
2023/08/18 06:28:25;;;;;;;13.60;9.50;;;23.00;99.90;;;;;;5014575;28;20473;-60
2023/08/18 06:30:53;;;;;;;10.20;8.93;;;23.10;99.90;;;;;;5014704;28;20442;-64
2023/08/18 06:33:20;;;;;;;9.27;8.00;;;23.10;99.90;;;;;;5018539;28;20477;-60
2023/08/18 06:35:49;;;;;;;8.57;7.67;;;23.20;99.90;;;;;;5019391;28;20437;-60
2023/08/18 06:38:16;;;;;;;9.80;7.60;;;23.20;99.90;;;;;;5024777;28;20446;-62
2023/08/18 06:40:45;;;;;;;9.40;8.03;;;23.30;99.90;;;;;;5014729;28;20516;-61
2023/08/18 06:43:12;;;;;;;8.20;7.07;;;23.30;99.90;;;;;;5015225;28;20467;-61
2023/08/18 06:45:39;;;;;;;14.90;8.57;;;23.40;99.90;;;;;;5019611;28;20504;-60
2023/08/18 06:48:07;;;;;;;16.30;8.47;;;23.40;99.90;;;;;;5019776;28;20493;-58
2023/08/18 06:50:34;;;;;;;13.47;8.30;;;23.40;99.90;;;;;;5026747;28;20456;-61
2023/08/18 06:53:01;;;;;;;12.33;8.40;;;23.50;99.90;;;;;;5028580;28;20454;-61
2023/08/18 06:55:32;;;;;;;12.97;8.63;;;23.50;99.90;;;;;;5029432;28;20469;-62
2023/08/18 06:58:03;;;;;;;11.00;8.80;;;23.60;99.90;;;;;;5029038;28;20420;-62
2023/08/18 07:00:30;;;;;;;9.80;7.87;;;23.60;99.90;;;;;;5029203;28;20495;-61
2023/08/18 07:02:58;;;;;;;11.53;8.07;;;23.70;99.90;;;;;;5031295;28;20440;-59
2023/08/18 07:05:29;;;;;;;8.90;7.73;;;23.80;99.90;;;;;;5036791;28;20520;-61
2023/08/18 07:07:56;;;;;;;10.17;8.40;;;23.80;99.90;;;;;;5026907;28;20457;-63
2023/08/18 07:10:24;;;;;;;8.50;7.70;;;23.90;99.90;;;;;;5019460;28;20473;-64
2023/08/18 07:12:51;;;;;;;11.63;9.10;;;24.00;99.90;;;;;;5026154;28;20456;-63
2023/08/18 07:15:18;;;;;;;8.97;8.03;;;24.10;99.90;;;;;;5025279;28;20484;-61
2023/08/18 07:17:45;;;;;;;9.93;6.87;;;24.20;99.90;;;;;;5027347;28;20472;-62
2023/08/18 07:20:12;;;;;;;8.93;8.03;;;24.30;99.90;;;;;;5025575;28;20469;-61
2023/08/18 07:22:40;;;;;;;7.50;6.60;;;24.40;99.90;;;;;;5026918;28;20460;-61
2023/08/18 07:25:10;;;;;;;7.73;6.93;;;24.50;99.90;;;;;;5026630;28;20500;-62
2023/08/18 07:27:37;;;;;;;6.53;6.03;;;24.50;99.90;;;;;;5021475;28;20449;-62
2023/08/18 07:30:06;;;;;;;7.37;6.70;;;24.70;99.90;;;;;;5027601;28;20483;-62
2023/08/18 07:32:32;;;;;;;9.00;7.57;;;24.70;99.90;;;;;;5027529;28;20449;-60
2023/08/18 07:34:59;;;;;;;7.90;7.17;;;24.80;99.90;;;;;;5028228;28;20516;-62
2023/08/18 07:37:26;;;;;;;16.03;8.47;;;24.90;99.90;;;;;;5027850;28;20473;-62
2023/08/18 07:39:54;;;;;;;8.70;7.20;;;25.00;99.90;;;;;;5027474;28;20501;-62
2023/08/18 07:42:21;;;;;;;8.07;7.00;;;25.10;99.90;;;;;;5026663;28;20452;-61
2023/08/18 07:44:48;;;;;;;7.07;6.07;;;25.20;99.90;;;;;;5027180;28;20523;-63
2023/08/18 07:47:15;;;;;;;8.13;7.17;;;25.30;99.90;;;;;;5027158;28;20429;-62
2023/08/18 07:49:42;;;;;;;8.40;7.37;;;25.40;99.90;;;;;;5027083;28;20480;-61
2023/08/18 07:52:09;;;;;;;7.07;6.37;;;25.60;99.90;;;;;;5025740;28;20449;-63
2023/08/18 07:54:36;;;;;;;8.03;7.33;;;25.80;99.90;;;;;;5026775;28;20532;-61
2023/08/18 07:57:04;;;;;;;7.60;6.67;;;26.00;99.90;;;;;;5017273;28;20512;-61
2023/08/18 07:59:31;;;;;;;6.73;5.47;;;27.00;99.90;;;;;;5016714;28;20552;-61
2023/08/18 08:01:59;;;;;;;9.43;7.00;;;28.40;99.90;;;;;;5020574;28;20493;-62
2023/08/18 08:04:27;;;;;;;8.90;6.40;;;30.00;99.90;;;;;;5023034;28;20495;-61
2023/08/18 08:06:56;;;;;;;11.27;6.53;;;31.60;99.90;;;;;;5024960;28;20472;-63
2023/08/18 08:09:23;;;;;;;6.53;5.80;;;33.20;99.90;;;;;;5025130;28;20484;-61
2023/08/18 08:11:50;;;;;;;6.07;5.50;;;34.50;99.90;;;;;;5016770;28;20507;-62
2023/08/18 08:14:19;;;;;;;6.37;5.33;;;35.50;96.80;;;;;;5019607;28;20485;-63
2023/08/18 08:16:46;;;;;;;6.47;5.20;;;36.40;92.50;;;;;;5020114;28;20445;-62
2023/08/18 08:19:13;;;;;;;7.47;6.77;;;37.10;88.30;;;;;;5026306;28;20463;-61
2023/08/18 08:21:41;;;;;;;6.80;6.10;;;37.70;80.70;;;;;;5025604;28;20472;-62
2023/08/18 08:24:08;;;;;;;8.13;5.97;;;38.10;77.20;;;;;;5025624;28;20464;-62
2023/08/18 08:26:35;;;;;;;8.23;5.17;;;38.40;72.70;;;;;;5023214;28;20520;-61
2023/08/18 08:29:02;;;;;;;6.80;6.20;;;38.40;68.90;;;;;;5021028;28;20492;-61
2023/08/18 08:31:31;;;;;;;6.30;5.63;;;38.40;69.70;;;;;;5025245;28;20504;-62
2023/08/18 08:33:58;;;;;;;7.03;5.93;;;38.30;69.70;;;;;;5024173;28;20519;-62
2023/08/18 08:36:25;;;;;;;6.33;5.70;;;38.40;68.30;;;;;;5016048;28;20461;-63
2023/08/18 08:38:53;;;;;;;7.17;6.20;;;38.50;64.60;;;;;;5016927;28;20500;-61
2023/08/18 08:41:22;;;;;;;5.50;5.00;;;38.40;66.10;;;;;;5017374;28;20961;-61
2023/08/18 08:43:49;;;;;;;6.47;5.87;;;38.50;64.40;;;;;;5016249;28;20441;-62
2023/08/18 08:46:17;;;;;;;6.40;5.80;;;38.60;65.40;;;;;;5015744;28;20491;-63
2023/08/18 08:48:48;;;;;;;4.63;4.23;;;38.50;65.50;;;;;;5018172;28;20469;-61
2023/08/18 08:51:19;;;;;;;6.00;5.40;;;38.40;62.60;;;;;;5029676;28;20461;-56
2023/08/18 08:53:48;;;;;;;5.57;5.07;;;38.60;62.50;;;;;;5036522;28;20421;-62
2023/08/18 08:56:17;;;;;;;7.10;5.53;;;38.70;61.50;;;;;;5015297;28;20477;-63
2023/08/18 08:58:45;;;;;;;5.53;5.03;;;38.70;63.10;;;;;;5015410;28;20544;-61
2023/08/18 09:01:12;;;;;;;6.87;6.37;;;38.50;62.50;;;;;;5015742;28;20465;-61
2023/08/18 09:03:39;;;;;;;7.10;5.90;;;38.50;62.00;;;;;;5017897;28;20445;-62
2023/08/18 09:06:08;;;;;;;5.40;5.00;;;38.50;60.70;;;;;;5016552;28;21033;-62
2023/08/18 09:08:35;;;;;;;5.47;5.07;;;38.40;60.60;;;;;;5015334;28;20503;-63
2023/08/18 09:11:02;;;;;;;7.63;5.60;;;38.30;62.50;;;;;;5017307;28;20525;-62
2023/08/18 09:13:29;;;;;;;7.23;6.50;;;38.40;61.60;;;;;;5016505;28;20483;-62
2023/08/18 09:15:58;;;;;;;10.63;5.20;;;38.40;60.40;;;;;;5014939;28;20504;-60
2023/08/18 09:18:26;;;;;;;5.93;4.70;;;38.50;60.30;;;;;;5015703;28;20841;-62
2023/08/18 09:20:56;;;;;;;6.80;5.07;;;38.60;60.10;;;;;;5015352;28;20520;-64
2023/08/18 09:23:27;;;;;;;5.17;4.77;;;38.50;59.80;;;;;;5015092;28;20458;-64
2023/08/18 09:25:59;;;;;;;5.53;5.03;;;38.50;59.50;;;;;;5035716;28;20492;-56
2023/08/18 09:28:28;;;;;;;4.77;4.37;;;38.50;58.40;;;;;;5038878;28;20488;-54
2023/08/18 09:30:55;;;;;;;5.13;4.60;;;38.60;58.20;;;;;;5019034;28;20445;-60
2023/08/18 09:33:25;;;;;;;5.00;4.00;;;38.60;56.90;;;;;;5019122;28;20476;-61
2023/08/18 09:35:58;;;;;;;4.70;4.40;;;39.00;54.60;;;;;;5026759;28;20429;-61
2023/08/18 09:38:27;;;;;;;5.00;4.60;;;39.20;55.30;;;;;;5022783;28;20426;-62
2023/08/18 09:40:55;;;;;;;4.53;4.13;;;39.20;56.50;;;;;;5023194;28;20829;-61
2023/08/18 09:43:22;;;;;;;5.20;4.80;;;39.20;56.10;;;;;;5019060;28;20425;-60
2023/08/18 09:45:50;;;;;;;5.23;4.83;;;39.20;56.20;;;;;;5014602;28;20512;-61
2023/08/18 09:48:23;;;;;;;4.50;4.10;;;39.10;56.30;;;;;;5037634;28;20436;-56
2023/08/18 09:50:56;;;;;;;5.63;5.13;;;38.90;56.80;;;;;;5038651;28;20433;-55
2023/08/18 09:53:30;;;;;;;4.47;4.10;;;38.90;57.00;;;;;;5034985;28;20805;-63
2023/08/18 09:56:03;;;;;;;5.00;4.50;;;38.70;57.00;;;;;;5014928;28;20430;-60
2023/08/18 09:58:36;;;;;;;6.20;5.70;;;38.80;57.90;;;;;;5014655;28;20433;-63
2023/08/18 10:01:05;;;;;;;5.13;4.73;;;38.70;58.20;;;;;;5014937;28;20430;-65
2023/08/18 10:03:35;;;;;;;5.33;4.83;;;38.60;58.40;;;;;;5015221;28;20473;-62
2023/08/18 10:06:03;;;;;;;6.40;5.80;;;38.70;57.80;;;;;;5017521;28;20941;-65
2023/08/18 10:08:32;;;;;;;6.13;5.47;;;38.60;59.30;;;;;;5017848;28;20445;-62
2023/08/18 10:11:00;;;;;;;4.90;4.50;;;38.60;59.30;;;;;;5017307;28;20477;-62
2023/08/18 10:13:29;;;;;;;7.40;5.00;;;38.60;58.30;;;;;;5017438;28;20519;-63
2023/08/18 10:15:57;;;;;;;5.90;5.30;;;38.60;57.40;;;;;;5018101;28;20536;-61
2023/08/18 10:18:24;;;;;;;5.37;4.87;;;38.60;57.30;;;;;;5021371;28;20441;-62
2023/08/18 10:20:51;;;;;;;5.33;4.40;;;38.60;56.50;;;;;;5015908;28;20476;-61
2023/08/18 10:23:19;;;;;;;5.70;4.50;;;38.60;57.20;;;;;;5014707;28;20449;-61
2023/08/18 10:25:51;;;;;;;6.67;4.77;;;38.50;57.10;;;;;;5014370;28;21024;-63
2023/08/18 10:28:19;;;;;;;6.27;4.80;;;38.30;58.30;;;;;;5016678;28;20534;-64
2023/08/18 10:30:52;;;;;;;6.43;5.90;;;38.10;57.70;;;;;;5018531;28;20539;-61
2023/08/18 10:33:30;;;;;;;5.83;5.23;;;38.00;58.30;;;;;;5018049;28;21020;-62
2023/08/18 10:35:58;;;;;;;7.30;5.53;;;37.90;59.00;;;;;;5018607;28;20483;-65
2023/08/18 10:38:29;;;;;;;6.37;5.20;;;37.70;58.60;;;;;;5018040;28;20548;-62
2023/08/18 10:40:58;;;;;;;7.10;4.90;;;37.60;58.20;;;;;;5018235;28;20551;-64
2023/08/18 10:43:29;;;;;;;7.13;5.10;;;37.40;59.00;;;;;;5020434;28;20453;-64
2023/08/18 10:46:02;;;;;;;4.90;4.50;;;37.20;60.40;;;;;;5023342;28;20473;-64
2023/08/18 10:48:32;;;;;;;5.43;4.93;;;37.00;59.90;;;;;;5020815;28;20429;-62
2023/08/18 10:50:59;;;;;;;6.87;6.30;;;36.70;60.40;;;;;;5018562;28;20446;-64
2023/08/18 10:53:27;;;;;;;5.50;5.00;;;36.50;62.00;;;;;;5018476;28;20464;-63
2023/08/18 10:55:54;;;;;;;6.10;5.50;;;36.30;63.30;;;;;;5017796;28;20441;-63
2023/08/18 10:58:23;;;;;;;6.67;6.07;;;36.00;62.80;;;;;;5018017;28;20531;-62
2023/08/18 11:00:50;;;;;;;5.43;4.93;;;35.80;62.60;;;;;;5017883;28;20455;-64
2023/08/18 11:03:17;;;;;;;8.33;7.20;;;35.60;62.00;;;;;;5017669;28;20783;-62
2023/08/18 11:05:44;;;;;;;6.30;5.23;;;35.60;62.60;;;;;;5017729;28;20522;-62
2023/08/18 11:08:11;;;;;;;6.07;5.47;;;35.40;62.10;;;;;;5017848;28;20564;-64
2023/08/18 11:10:39;;;;;;;4.60;4.17;;;35.20;63.50;;;;;;5022157;28;20472;-63
2023/08/18 11:13:07;;;;;;;5.20;4.63;;;35.10;62.60;;;;;;5022055;28;20476;-64
2023/08/18 11:15:35;;;;;;;6.10;5.60;;;35.10;62.90;;;;;;5023181;28;20469;-62
2023/08/18 11:18:03;;;;;;;5.13;4.70;;;35.00;65.00;;;;;;5022581;28;20989;-63
2023/08/18 11:20:30;;;;;;;6.00;5.40;;;34.90;65.10;;;;;;5022066;28;20445;-62
2023/08/18 11:22:58;;;;;;;6.50;5.70;;;34.80;65.30;;;;;;5021797;28;20503;-63
2023/08/18 11:25:26;;;;;;;5.70;5.20;;;34.60;66.10;;;;;;5021940;28;20481;-62
2023/08/18 11:27:54;;;;;;;6.37;5.67;;;34.50;67.10;;;;;;5022447;28;20509;-63
2023/08/18 11:30:22;;;;;;;8.63;5.70;;;34.40;67.20;;;;;;5022446;28;20508;-62
2023/08/18 11:32:53;;;;;;;6.33;5.73;;;34.20;67.90;;;;;;5021792;28;20465;-64
2023/08/18 11:35:20;;;;;;;4.50;4.10;;;34.20;69.10;;;;;;5021944;28;20784;-63
2023/08/18 11:37:49;;;;;;;5.53;5.03;;;34.00;69.10;;;;;;5021999;28;20535;-62
2023/08/18 11:40:18;;;;;;;6.90;5.77;;;33.90;68.50;;;;;;5019398;28;20435;-63
2023/08/18 11:42:47;;;;;;;7.23;6.30;;;33.70;69.80;;;;;;5021201;28;20479;-61
2023/08/18 11:45:16;;;;;;;8.00;7.30;;;33.60;70.90;;;;;;5017895;28;20487;-63
2023/08/18 11:47:43;;;;;;;7.57;6.80;;;33.50;71.10;;;;;;5021720;28;20506;-61
2023/08/18 11:50:19;;;;;;;7.30;6.07;;;33.40;71.50;;;;;;5017093;28;20568;-63
2023/08/18 11:52:48;;;;;;;8.23;6.40;;;33.30;72.70;;;;;;5016764;28;20978;-63
2023/08/18 11:55:15;;;;;;;6.10;5.50;;;33.20;75.10;;;;;;5017076;28;20505;-60
2023/08/18 11:57:45;;;;;;;7.50;6.47;;;33.10;75.10;;;;;;5035027;28;20460;-53
2023/08/18 12:00:13;;;;;;;9.10;6.37;;;32.90;75.60;;;;;;5038278;28;20438;-61
2023/08/18 12:02:44;;;;;;;5.40;5.00;;;32.90;77.70;;;;;;5030482;28;20445;-62
2023/08/18 12:05:22;;;;;;;6.47;5.30;;;32.80;78.40;;;;;;5025597;28;20452;-56
2023/08/18 12:07:51;;;;;;;6.00;5.40;;;32.70;77.80;;;;;;5031018;28;20421;-62
2023/08/18 12:10:18;;;;;;;5.50;5.00;;;32.70;79.90;;;;;;5016436;28;20440;-63
2023/08/18 12:12:50;;;;;;;5.67;5.17;;;32.70;77.80;;;;;;5016902;28;20519;-62
2023/08/18 12:15:17;;;;;;;7.20;5.37;;;32.70;79.30;;;;;;5020831;28;20945;-61
2023/08/18 12:17:44;;;;;;;5.73;5.23;;;32.70;78.10;;;;;;5019532;28;20455;-61
2023/08/18 12:20:11;;;;;;;7.37;5.90;;;32.70;78.50;;;;;;5019927;28;20477;-63
2023/08/18 12:22:39;;;;;;;6.60;6.00;;;32.60;77.20;;;;;;5017155;28;20469;-63
2023/08/18 12:25:07;;;;;;;5.63;5.13;;;32.50;79.10;;;;;;5017510;28;20469;-62
2023/08/18 12:27:34;;;;;;;7.77;5.80;;;32.50;78.50;;;;;;5019685;28;20539;-63
2023/08/18 12:30:02;;;;;;;6.57;5.97;;;32.50;80.60;;;;;;5019270;28;20949;-61
2023/08/18 12:32:30;;;;;;;5.97;5.47;;;32.40;77.30;;;;;;5019142;28;20512;-63
2023/08/18 12:34:58;;;;;;;6.07;5.47;;;32.20;77.80;;;;;;5016174;28;20456;-63
2023/08/18 12:37:25;;;;;;;8.70;5.70;;;32.20;79.00;;;;;;5015959;28;20476;-64
2023/08/18 12:39:55;;;;;;;7.80;7.00;;;32.20;78.50;;;;;;5016169;28;20505;-63
2023/08/18 12:42:23;;;;;;;7.60;6.43;;;32.20;81.10;;;;;;5016123;28;20476;-62
2023/08/18 12:44:50;;;;;;;8.30;6.90;;;32.30;79.40;;;;;;5015993;28;20473;-62
2023/08/18 12:47:17;;;;;;;5.90;5.40;;;32.50;82.90;;;;;;5035865;28;20540;-55
2023/08/18 12:49:45;;;;;;;6.87;6.27;;;32.50;82.00;;;;;;5031368;28;20449;-54